createdAt,value
2022-08-16T00:03:46.268Z,74.28
2022-08-16T00:08:49.803Z,72.52
2022-08-16T00:13:55.506Z,72.08
2022-08-16T00:19:00.658Z,72.95
2022-08-16T00:24:04.586Z,74.20
2022-08-16T00:29:08.009Z,74.24
2022-08-16T00:34:17.983Z,75.24
2022-08-16T00:39:21.911Z,74.85
2022-08-16T00:44:31.807Z,74.01
2022-08-16T00:49:39.489Z,73.60
2022-08-16T00:54:48.031Z,73.67
2022-08-16T00:59:58.996Z,73.38
2022-08-16T01:05:09.643Z,73.02
2022-08-16T01:10:16.027Z,72.93
2022-08-16T01:15:20.325Z,73.28
2022-08-16T01:20:32.954Z,74.73
2022-08-16T01:25:41.958Z,76.89
2022-08-16T01:30:50.630Z,74.64
2022-08-16T01:35:58.269Z,75.33
2022-08-16T01:41:06.284Z,73.28
2022-08-16T01:46:37.767Z,75.34
2022-08-16T01:51:49.250Z,78.01
2022-08-16T01:56:59.644Z,79.76
2022-08-16T02:02:04.220Z,77.25
2022-08-16T02:07:27.503Z,76.35
2022-08-16T02:12:49.590Z,77.21
2022-08-16T02:17:55.563Z,77.12
2022-08-16T02:23:01.821Z,76.51
2022-08-16T02:28:10.396Z,76.81
2022-08-16T02:33:15.627Z,79.46
2022-08-16T02:38:19.544Z,78.95
2022-08-16T02:43:26.741Z,78.05
2022-08-16T02:48:32.094Z,77.26
2022-08-16T02:53:39.363Z,76.09
2022-08-16T02:58:45.281Z,76.80
2022-08-16T03:04:39.482Z,74.58
2022-08-16T03:09:14.971Z,72.74
2022-08-16T03:14:25.224Z,71.30
2022-08-16T03:19:45.787Z,70.94
2022-08-16T03:24:51.540Z,70.49
2022-08-16T03:29:56.041Z,70.30
2022-08-16T03:35:00.588Z,69.00
2022-08-16T03:40:04.804Z,69.54
2022-08-16T03:45:10.911Z,68.88
2022-08-16T03:50:26.234Z,68.57
2022-08-16T03:55:45.207Z,68.22
2022-08-16T04:00:56.846Z,67.29
2022-08-16T04:06:03.929Z,66.38
2022-08-16T04:11:07.597Z,65.84
2022-08-16T04:16:26.781Z,65.96
2022-08-16T04:21:35.235Z,65.24
2022-08-16T04:26:46.002Z,64.86
2022-08-16T04:31:56.488Z,64.45
2022-08-16T04:37:04.619Z,62.70
2022-08-16T04:42:11.741Z,59.52
2022-08-16T04:47:21.861Z,59.15
2022-08-16T04:52:34.608Z,58.69
2022-08-16T04:57:41.264Z,58.53
2022-08-16T05:02:47.381Z,59.70
2022-08-16T05:08:00.012Z,58.51
2022-08-16T05:13:08.474Z,58.53
2022-08-16T05:18:23.349Z,57.50
2022-08-16T05:23:32.427Z,57.67
2022-08-16T05:28:38.980Z,57.77
2022-08-16T05:33:45.657Z,57.59
2022-08-16T05:38:58.480Z,56.97
2022-08-16T05:44:05.414Z,56.58
2022-08-16T05:49:36.951Z,55.44
2022-08-16T05:54:47.613Z,54.92
2022-08-16T06:00:08.860Z,53.60
2022-08-16T06:05:16.931Z,51.24
2022-08-16T06:10:32.089Z,50.65
2022-08-16T06:15:38.015Z,49.48
2022-08-16T06:20:55.035Z,49.91
2022-08-16T06:25:59.173Z,48.07
2022-08-16T06:31:11.925Z,48.68
2022-08-16T06:36:21.737Z,46.87
2022-08-16T06:41:57.322Z,45.91
2022-08-16T06:47:53.633Z,45.48
2022-08-16T06:52:59.699Z,44.85
2022-08-16T06:58:08.480Z,45.63
2022-08-16T07:03:27.675Z,45.24
2022-08-16T07:08:33.900Z,43.60
2022-08-16T07:19:03.980Z,42.16
2022-08-16T07:24:30.356Z,41.76
2022-08-16T07:29:40.183Z,41.39
2022-08-16T07:34:48.143Z,41.85
2022-08-16T07:39:55.723Z,39.88
2022-08-16T07:44:59.160Z,39.96
2022-08-16T07:50:07.343Z,39.38
2022-08-16T07:55:15.217Z,39.09
2022-08-16T08:00:19.331Z,39.15
2022-08-16T08:05:35.955Z,39.33
2022-08-16T08:10:42.865Z,38.91
2022-08-16T08:15:52.901Z,37.90
2022-08-16T08:20:59.362Z,36.89
2022-08-16T08:26:17.731Z,37.45
2022-08-16T08:31:21.852Z,36.14
2022-08-16T08:36:33.097Z,34.94
2022-08-16T08:41:46.616Z,38.65
2022-08-16T08:47:00.250Z,39.76
2022-08-16T08:52:08.029Z,38.32
2022-08-16T08:57:14.531Z,35.19
2022-08-16T09:02:36.513Z,40.32
2022-08-16T09:08:00.413Z,39.66
2022-08-16T09:13:16.873Z,38.80
2022-08-16T09:18:26.757Z,36.31
2022-08-16T09:23:36.643Z,36.38
2022-08-16T09:29:16.018Z,34.68
2022-08-16T09:34:07.697Z,33.08
2022-08-16T09:39:16.175Z,32.87
2022-08-16T09:45:09.141Z,34.08
2022-08-16T09:49:44.653Z,35.53
2022-08-16T09:54:54.184Z,33.06
2022-08-16T10:00:00.845Z,33.18
2022-08-16T10:05:03.999Z,31.83
2022-08-16T10:10:11.557Z,32.33
2022-08-16T10:15:21.212Z,35.32
2022-08-16T10:20:26.911Z,32.14
2022-08-16T10:27:17.612Z,35.23
2022-08-16T10:30:58.984Z,35.01
2022-08-16T10:36:04.946Z,36.09
2022-08-16T10:41:10.332Z,32.43
2022-08-16T10:46:33.694Z,34.50
2022-08-16T10:52:01.277Z,34.49
2022-08-16T10:57:04.154Z,35.41
2022-08-16T11:02:57.880Z,32.57
2022-08-16T11:07:52.186Z,31.99
2022-08-16T11:12:56.454Z,33.58
2022-08-16T11:23:24.754Z,31.30
2022-08-16T11:33:52.600Z,33.46
2022-08-16T11:38:58.068Z,34.32
2022-08-16T11:44:02.123Z,34.38
2022-08-16T11:49:13.208Z,33.53
2022-08-16T11:54:21.268Z,33.03
2022-08-16T11:59:28.882Z,32.22
2022-08-16T12:04:35.057Z,32.20
2022-08-16T12:09:43.162Z,33.06
2022-08-16T12:14:46.562Z,32.03
2022-08-16T12:19:50.927Z,31.82
2022-08-16T12:24:54.156Z,30.83
2022-08-16T12:29:58.614Z,29.81
2022-08-16T12:35:03.243Z,33.01
2022-08-16T12:40:19.808Z,31.81
2022-08-16T12:45:30.360Z,33.18
2022-08-16T12:50:35.319Z,33.30
2022-08-16T12:55:41.875Z,32.89
2022-08-16T13:00:45.391Z,31.74
2022-08-16T13:05:55.409Z,32.43
2022-08-16T13:11:00.461Z,32.88
2022-08-16T13:16:15.516Z,32.83
2022-08-16T13:21:25.259Z,32.69
2022-08-16T13:26:30.115Z,31.62
2022-08-16T13:31:34.087Z,31.82
2022-08-16T13:36:48.463Z,31.00
2022-08-16T13:41:54.583Z,31.69
2022-08-16T13:46:57.792Z,31.60
2022-08-16T13:52:03.500Z,31.25
2022-08-16T13:57:07.388Z,31.51
2022-08-16T14:02:15.218Z,30.97
2022-08-16T14:07:24.661Z,31.22
2022-08-16T14:12:30.931Z,30.17
2022-08-16T14:18:15.549Z,30.38
2022-08-16T14:22:58.995Z,31.37
2022-08-16T14:28:02.370Z,30.69
2022-08-16T14:33:05.948Z,32.32
2022-08-16T14:38:11.139Z,33.00
2022-08-16T14:43:21.476Z,32.91
2022-08-16T14:48:25.867Z,32.30
2022-08-16T14:53:31.279Z,32.28
2022-08-16T14:58:38.186Z,31.12
2022-08-16T15:03:44.683Z,30.66
2022-08-16T15:08:49.394Z,30.51
2022-08-16T15:13:54.972Z,30.89
2022-08-16T15:18:59.448Z,30.69
2022-08-16T15:24:05.595Z,30.15
2022-08-16T15:29:09.418Z,31.73
2022-08-16T15:34:22.025Z,30.99
2022-08-16T15:39:39.366Z,30.78
2022-08-16T15:44:52.872Z,31.44
2022-08-16T15:49:57.956Z,31.64
2022-08-16T15:55:12.744Z,32.09
2022-08-16T16:00:27.012Z,31.43
2022-08-16T16:05:30.185Z,32.72
2022-08-16T16:10:37.345Z,33.06
2022-08-16T16:15:44.481Z,33.94
2022-08-16T16:20:49.806Z,33.28
2022-08-16T16:25:57.072Z,32.81
2022-08-16T16:31:01.598Z,33.90
2022-08-16T16:36:05.554Z,34.35
2022-08-16T16:41:11.676Z,34.73
2022-08-16T16:46:40.339Z,34.26
2022-08-16T16:51:44.854Z,34.54
2022-08-16T16:56:54.335Z,34.44
2022-08-16T17:02:38.849Z,34.68
2022-08-16T17:07:24.381Z,35.01
2022-08-16T17:12:47.025Z,35.56
2022-08-16T17:18:00.530Z,36.60
2022-08-16T17:23:05.481Z,37.46
2022-08-16T17:28:58.155Z,37.30
2022-08-16T17:33:37.262Z,37.85
2022-08-16T17:38:57.262Z,38.94
2022-08-16T17:44:01.982Z,38.45
2022-08-16T17:49:05.492Z,39.05
2022-08-16T17:54:08.602Z,39.22
2022-08-16T17:59:24.801Z,39.77
2022-08-16T18:04:48.251Z,40.13
2022-08-16T18:09:52.333Z,40.50
2022-08-16T18:14:59.971Z,41.43
2022-08-16T18:20:03.765Z,41.96
2022-08-16T18:25:07.942Z,41.91
2022-08-16T18:30:17.492Z,42.55
2022-08-16T18:35:22.558Z,42.35
2022-08-16T18:40:25.787Z,42.25
2022-08-16T18:45:35.493Z,43.02
2022-08-16T18:51:03.979Z,43.08
2022-08-16T18:56:05.268Z,43.35
2022-08-16T19:01:09.726Z,43.62
2022-08-16T19:06:15.180Z,43.45
2022-08-16T19:11:23.474Z,43.44
2022-08-16T19:16:28.012Z,44.78
2022-08-16T19:21:31.211Z,44.81
2022-08-16T19:26:34.260Z,44.94
2022-08-16T19:31:38.787Z,44.51
2022-08-16T19:36:41.961Z,45.97
2022-08-16T19:41:50.427Z,45.78
2022-08-16T19:46:58.934Z,46.02
2022-08-16T19:52:10.941Z,45.96
2022-08-16T19:57:15.246Z,46.41
2022-08-16T20:02:35.656Z,46.60
2022-08-16T20:07:39.038Z,47.00
2022-08-16T20:12:44.172Z,46.94
2022-08-16T20:18:12.487Z,47.36
2022-08-16T20:23:26.011Z,48.16
2022-08-16T20:28:40.699Z,48.06
2022-08-16T20:33:54.246Z,47.83
2022-08-16T20:39:00.078Z,48.18
2022-08-16T20:44:03.162Z,48.51
2022-08-16T20:49:09.024Z,49.19
2022-08-16T20:54:12.332Z,49.18
2022-08-16T20:59:18.187Z,49.23
2022-08-16T21:04:25.319Z,49.76
2022-08-16T21:09:33.489Z,49.78
2022-08-16T21:14:36.981Z,49.65
2022-08-16T21:19:41.808Z,50.75
2022-08-16T21:24:46.469Z,50.25
2022-08-16T21:29:51.770Z,50.39
2022-08-16T21:35:00.125Z,50.95
2022-08-16T21:40:03.659Z,51.07
2022-08-16T21:45:08.569Z,51.33
2022-08-16T21:50:15.276Z,51.29
2022-08-16T21:55:18.512Z,51.42
2022-08-16T22:00:21.615Z,51.61
2022-08-16T22:05:26.720Z,51.85
2022-08-16T22:11:07.764Z,52.19
2022-08-16T22:15:55.282Z,51.97
2022-08-16T22:20:59.627Z,52.37
2022-08-16T22:26:02.669Z,52.66
2022-08-16T22:31:05.865Z,52.58
2022-08-16T22:36:10.873Z,52.79
2022-08-16T22:41:13.937Z,53.21
2022-08-16T22:46:20.858Z,53.74
2022-08-16T22:51:26.958Z,53.74
2022-08-16T22:56:29.976Z,53.67
2022-08-16T23:01:33.126Z,54.11
2022-08-16T23:06:37.606Z,53.99
2022-08-16T23:11:40.601Z,54.78
2022-08-16T23:16:47.341Z,54.57
2022-08-16T23:21:52.906Z,54.80
2022-08-16T23:26:55.918Z,55.35
2022-08-16T23:32:10.783Z,55.11
2022-08-16T23:37:15.431Z,55.19
2022-08-16T23:42:18.464Z,55.40
2022-08-16T23:47:41.535Z,55.40
2022-08-16T23:53:04.199Z,55.85
2022-08-16T23:58:07.204Z,55.89
